Akkoy, Turkey

8:57 AM +03 on November 21, 2017 (GMT +0300)
Erkilet Air Base | | Change Station

Elev 3458 ft 38.82 °N, 35.43 °E | Updated 37 minutes ago

Snow
Snow
37 °F
Feels Like 28 °F
N
17
Wind Variable Wind from WSW

Today
High -- | Low -- °F
--% Chance of Precip.
Yesterday
High -- | Low -- °F
Precip. -- in
Pressure 29.59 in
Visibility 5.0 miles
Clouds Scattered Clouds 900 ft
Mostly Cloudy 2500 ft
Overcast 8000 ft
Windchill 28 °F
Dew Point 34 °F
Humidity 87%
Rainfall 0.00 in
Snow Depth Not available.
7:27 AM 5:23 PM
Waxing Crescent, 7% visible
METAR LTAU 210520Z 25015KT 8000 -RASN SCT009 BKN025 OVC080 03/01 Q1002 RERASN BECMG 4000 RASN RMK RWY07 24014KT
Pressure 29.59 in
Visibility 5.0 miles
Clouds Scattered Clouds 900 ft
Mostly Cloudy 2500 ft
Overcast 8000 ft
Windchill 28 °F
Dew Point 34 °F
Humidity 87%
Rainfall 0.00 in
Snow Depth Not available.
7:27 AM 5:23 PM
Waxing Crescent, 7% visible
METAR LTAU 210520Z 25015KT 8000 -RASN SCT009 BKN025 OVC080 03/01 Q1002 RERASN BECMG 4000 RASN RMK RWY07 24014KT

Get Severe Weather Alerts

Thanks for signing up!

Be on the lookout for a verification email in your inbox.

You'll start receiving the daily forecast at 6 AM.

×

10-Day Weather Forecast

×

Almanac

Astronomy

Nov. 21, 2017 Rise Set
Actual Time
Civil Twilight
Nautical Twilight
Astronomical Twilight
Moon
Length of Visible Light
Length of Day
Tomorrow will be .
, % of the Moon is Illuminated

Today's Extremes

Country Highs Country Lows

Community

WunderPhotos

Category 6

Welcome to Category 6. This is the collective home for Weather Underground's featured writeups by Dr. Jeff Masters (right), Bob Henson (left), Chris Burt, and other regular contributors.

Nearby

Air Quality

  Air Quality AQ Index Pollutant
Not available.

Snow Depth

Station Depth Elevation

Earthquake Activity

City Distance Mag. Time & Date
Minimum magnitude displayed is 2.5.

Coastal Water Temperatures

Place Temperature

Stations

Nearby Weather Stations

Station Location Temp. Windchill Dew Point Humidity Wind Precip. Elev Updated Type